sensor_id;sensor_type;location;lat;lon;timestamp;P1;durP1;ratioP1;P2;durP2;ratioP2
69511;SDS011;56709;52.036;4.644;2023-02-24T00:04:24;12.55;;;3.90;;
69511;SDS011;56709;52.036;4.644;2023-02-24T00:06:50;11.50;;;3.40;;
69511;SDS011;56709;52.036;4.644;2023-02-24T00:09:17;25.25;;;4.45;;
69511;SDS011;56709;52.036;4.644;2023-02-24T00:11:46;18.05;;;3.72;;
69511;SDS011;56709;52.036;4.644;2023-02-24T00:14:16;13.90;;;4.43;;
69511;SDS011;56709;52.036;4.644;2023-02-24T00:16:43;13.85;;;3.47;;
69511;SDS011;56709;52.036;4.644;2023-02-24T00:19:10;15.18;;;4.03;;
69511;SDS011;56709;52.036;4.644;2023-02-24T00:21:37;14.32;;;4.03;;
69511;SDS011;56709;52.036;4.644;2023-02-24T00:24:03;16.27;;;4.20;;
69511;SDS011;56709;52.036;4.644;2023-02-24T00:26:29;15.65;;;4.25;;
69511;SDS011;56709;52.036;4.644;2023-02-24T00:28:57;14.93;;;4.43;;
69511;SDS011;56709;52.036;4.644;2023-02-24T00:31:24;13.98;;;4.00;;
69511;SDS011;56709;52.036;4.644;2023-02-24T00:33:55;10.13;;;3.72;;
69511;SDS011;56709;52.036;4.644;2023-02-24T00:36:21;12.65;;;3.78;;
69511;SDS011;56709;52.036;4.644;2023-02-24T00:38:51;14.00;;;4.00;;
69511;SDS011;56709;52.036;4.644;2023-02-24T00:41:21;13.95;;;3.35;;
69511;SDS011;56709;52.036;4.644;2023-02-24T00:43:53;12.88;;;4.40;;
69511;SDS011;56709;52.036;4.644;2023-02-24T00:46:20;11.20;;;3.73;;
69511;SDS011;56709;52.036;4.644;2023-02-24T00:48:49;15.60;;;4.63;;
69511;SDS011;56709;52.036;4.644;2023-02-24T00:51:19;13.18;;;3.30;;
69511;SDS011;56709;52.036;4.644;2023-02-24T00:53:50;12.32;;;3.45;;
69511;SDS011;56709;52.036;4.644;2023-02-24T00:58:42;13.57;;;2.95;;
69511;SDS011;56709;52.036;4.644;2023-02-24T01:01:16;11.73;;;3.05;;
69511;SDS011;56709;52.036;4.644;2023-02-24T01:03:43;14.85;;;3.60;;
69511;SDS011;56709;52.036;4.644;2023-02-24T01:06:12;12.60;;;3.30;;
69511;SDS011;56709;52.036;4.644;2023-02-24T01:08:38;11.63;;;3.40;;
69511;SDS011;56709;52.036;4.644;2023-02-24T01:11:06;9.35;;;2.90;;
69511;SDS011;56709;52.036;4.644;2023-02-24T01:13:51;13.60;;;3.15;;
69511;SDS011;56709;52.036;4.644;2023-02-24T01:16:17;14.75;;;3.40;;
69511;SDS011;56709;52.036;4.644;2023-02-24T01:18:45;13.80;;;3.22;;
69511;SDS011;56709;52.036;4.644;2023-02-24T01:21:12;10.47;;;3.83;;
69511;SDS011;56709;52.036;4.644;2023-02-24T01:23:39;14.55;;;3.75;;
69511;SDS011;56709;52.036;4.644;2023-02-24T01:26:05;20.92;;;3.63;;
69511;SDS011;56709;52.036;4.644;2023-02-24T01:28:31;9.90;;;2.65;;
69511;SDS011;56709;52.036;4.644;2023-02-24T01:31:00;11.82;;;3.22;;
69511;SDS011;56709;52.036;4.644;2023-02-24T01:33:26;19.30;;;4.43;;
69511;SDS011;56709;52.036;4.644;2023-02-24T01:35:53;11.45;;;2.85;;
69511;SDS011;56709;52.036;4.644;2023-02-24T01:38:19;6.72;;;2.67;;
69511;SDS011;56709;52.036;4.644;2023-02-24T01:40:57;20.40;;;3.67;;
69511;SDS011;56709;52.036;4.644;2023-02-24T01:43:23;10.98;;;3.28;;
69511;SDS011;56709;52.036;4.644;2023-02-24T01:45:49;13.55;;;2.80;;
69511;SDS011;56709;52.036;4.644;2023-02-24T01:48:15;14.27;;;2.93;;
69511;SDS011;56709;52.036;4.644;2023-02-24T01:50:41;6.43;;;2.40;;
69511;SDS011;56709;52.036;4.644;2023-02-24T01:53:07;9.68;;;2.13;;
69511;SDS011;56709;52.036;4.644;2023-02-24T01:55:42;12.73;;;2.58;;
69511;SDS011;56709;52.036;4.644;2023-02-24T01:58:23;11.25;;;2.70;;
69511;SDS011;56709;52.036;4.644;2023-02-24T02:03:18;12.50;;;3.08;;
69511;SDS011;56709;52.036;4.644;2023-02-24T02:05:44;10.13;;;2.00;;
69511;SDS011;56709;52.036;4.644;2023-02-24T02:08:12;16.60;;;2.42;;
69511;SDS011;56709;52.036;4.644;2023-02-24T02:10:39;10.00;;;2.50;;
69511;SDS011;56709;52.036;4.644;2023-02-24T02:13:08;8.57;;;2.08;;
69511;SDS011;56709;52.036;4.644;2023-02-24T02:15:35;9.23;;;2.40;;
69511;SDS011;56709;52.036;4.644;2023-02-24T02:18:20;5.35;;;1.85;;
69511;SDS011;56709;52.036;4.644;2023-02-24T02:26:56;10.85;;;2.70;;
69511;SDS011;56709;52.036;4.644;2023-02-24T02:40:14;8.65;;;2.13;;
69511;SDS011;56709;52.036;4.644;2023-02-24T02:45:17;7.20;;;2.25;;
69511;SDS011;56709;52.036;4.644;2023-02-24T02:47:48;8.43;;;1.77;;
69511;SDS011;56709;52.036;4.644;2023-02-24T02:55:20;13.63;;;2.50;;
69511;SDS011;56709;52.036;4.644;2023-02-24T02:57:49;7.93;;;2.17;;
69511;SDS011;56709;52.036;4.644;2023-02-24T03:00:18;7.95;;;1.70;;
69511;SDS011;56709;52.036;4.644;2023-02-24T03:02:50;10.38;;;2.13;;
69511;SDS011;56709;52.036;4.644;2023-02-24T03:05:20;7.97;;;1.63;;
69511;SDS011;56709;52.036;4.644;2023-02-24T03:07:53;8.55;;;1.83;;
69511;SDS011;56709;52.036;4.644;2023-02-24T03:10:24;11.00;;;1.63;;
69511;SDS011;56709;52.036;4.644;2023-02-24T03:12:52;6.18;;;1.50;;
69511;SDS011;56709;52.036;4.644;2023-02-24T03:15:20;8.25;;;1.80;;
69511;SDS011;56709;52.036;4.644;2023-02-24T03:17:48;5.30;;;1.73;;
69511;SDS011;56709;52.036;4.644;2023-02-24T03:22:51;6.25;;;1.45;;
69511;SDS011;56709;52.036;4.644;2023-02-24T03:25:24;11.32;;;3.15;;
69511;SDS011;56709;52.036;4.644;2023-02-24T03:28:04;5.82;;;1.95;;
69511;SDS011;56709;52.036;4.644;2023-02-24T03:30:40;6.30;;;1.40;;
69511;SDS011;56709;52.036;4.644;2023-02-24T03:33:18;4.18;;;1.60;;
69511;SDS011;56709;52.036;4.644;2023-02-24T03:35:48;8.98;;;1.90;;
69511;SDS011;56709;52.036;4.644;2023-02-24T03:38:15;9.50;;;1.90;;
69511;SDS011;56709;52.036;4.644;2023-02-24T03:40:41;7.18;;;2.08;;
69511;SDS011;56709;52.036;4.644;2023-02-24T03:45:46;4.38;;;1.40;;
69511;SDS011;56709;52.036;4.644;2023-02-24T03:48:12;9.13;;;2.05;;
69511;SDS011;56709;52.036;4.644;2023-02-24T03:50:38;7.00;;;1.70;;
69511;SDS011;56709;52.036;4.644;2023-02-24T04:06:57;7.47;;;1.52;;
69511;SDS011;56709;52.036;4.644;2023-02-24T04:12:23;7.68;;;1.42;;
69511;SDS011;56709;52.036;4.644;2023-02-24T04:17:36;9.25;;;1.48;;
69511;SDS011;56709;52.036;4.644;2023-02-24T04:20:04;4.63;;;1.27;;
69511;SDS011;56709;52.036;4.644;2023-02-24T04:22:40;3.73;;;1.07;;
69511;SDS011;56709;52.036;4.644;2023-02-24T04:25:08;5.85;;;1.20;;
69511;SDS011;56709;52.036;4.644;2023-02-24T04:27:38;8.00;;;1.75;;
69511;SDS011;56709;52.036;4.644;2023-02-24T04:30:05;7.22;;;1.00;;
69511;SDS011;56709;52.036;4.644;2023-02-24T04:32:31;4.05;;;1.17;;
69511;SDS011;56709;52.036;4.644;2023-02-24T04:35:01;2.88;;;0.95;;
69511;SDS011;56709;52.036;4.644;2023-02-24T04:37:28;8.52;;;1.27;;
69511;SDS011;56709;52.036;4.644;2023-02-24T04:39:57;8.13;;;1.30;;
69511;SDS011;56709;52.036;4.644;2023-02-24T04:42:24;2.10;;;1.13;;
69511;SDS011;56709;52.036;4.644;2023-02-24T04:44:49;8.15;;;1.40;;
69511;SDS011;56709;52.036;4.644;2023-02-24T04:47:14;3.53;;;1.42;;
69511;SDS011;56709;52.036;4.644;2023-02-24T04:49:40;2.97;;;1.30;;
69511;SDS011;56709;52.036;4.644;2023-02-24T04:52:06;4.75;;;1.30;;
69511;SDS011;56709;52.036;4.644;2023-02-24T04:56:59;9.35;;;1.60;;
69511;SDS011;56709;52.036;4.644;2023-02-24T04:59:25;7.43;;;1.33;;
69511;SDS011;56709;52.036;4.644;2023-02-24T05:01:51;4.73;;;1.07;;
69511;SDS011;56709;52.036;4.644;2023-02-24T05:04:18;8.50;;;1.73;;
69511;SDS011;56709;52.036;4.644;2023-02-24T05:06:44;5.20;;;1.23;;
69511;SDS011;56709;52.036;4.644;2023-02-24T05:09:11;5.70;;;1.13;;
69511;SDS011;56709;52.036;4.644;2023-02-24T05:11:41;6.43;;;1.50;;
69511;SDS011;56709;52.036;4.644;2023-02-24T05:14:11;7.03;;;1.48;;
69511;SDS011;56709;52.036;4.644;2023-02-24T05:16:41;8.20;;;1.40;;
69511;SDS011;56709;52.036;4.644;2023-02-24T05:19:07;4.03;;;1.40;;
69511;SDS011;56709;52.036;4.644;2023-02-24T05:21:59;4.63;;;1.60;;
69511;SDS011;56709;52.036;4.644;2023-02-24T05:24:27;3.53;;;1.52;;
69511;SDS011;56709;52.036;4.644;2023-02-24T05:26:53;10.47;;;1.50;;
69511;SDS011;56709;52.036;4.644;2023-02-24T05:29:40;6.53;;;1.60;;
69511;SDS011;56709;52.036;4.644;2023-02-24T05:32:05;8.57;;;1.63;;
69511;SDS011;56709;52.036;4.644;2023-02-24T05:34:32;5.22;;;1.13;;
69511;SDS011;56709;52.036;4.644;2023-02-24T05:36:58;12.50;;;1.92;;
69511;SDS011;56709;52.036;4.644;2023-02-24T05:41:51;7.85;;;2.50;;
69511;SDS011;56709;52.036;4.644;2023-02-24T05:46:47;5.30;;;1.50;;
69511;SDS011;56709;52.036;4.644;2023-02-24T05:49:18;6.28;;;1.30;;
69511;SDS011;56709;52.036;4.644;2023-02-24T05:51:47;7.82;;;1.73;;
69511;SDS011;56709;52.036;4.644;2023-02-24T05:54:20;11.30;;;1.88;;
69511;SDS011;56709;52.036;4.644;2023-02-24T05:56:47;10.25;;;1.90;;
69511;SDS011;56709;52.036;4.644;2023-02-24T05:59:13;5.90;;;2.08;;
69511;SDS011;56709;52.036;4.644;2023-02-24T06:01:42;4.15;;;1.80;;
69511;SDS011;56709;52.036;4.644;2023-02-24T06:04:11;9.82;;;2.30;;
69511;SDS011;56709;52.036;4.644;2023-02-24T06:06:45;9.60;;;1.63;;
69511;SDS011;56709;52.036;4.644;2023-02-24T06:09:14;8.60;;;2.25;;
69511;SDS011;56709;52.036;4.644;2023-02-24T06:11:40;9.20;;;1.75;;
69511;SDS011;56709;52.036;4.644;2023-02-24T06:14:07;9.07;;;2.40;;
69511;SDS011;56709;52.036;4.644;2023-02-24T06:16:35;8.63;;;2.25;;
69511;SDS011;56709;52.036;4.644;2023-02-24T06:19:01;5.15;;;1.98;;
69511;SDS011;56709;52.036;4.644;2023-02-24T06:21:27;11.20;;;1.90;;
69511;SDS011;56709;52.036;4.644;2023-02-24T06:23:58;8.00;;;2.65;;
69511;SDS011;56709;52.036;4.644;2023-02-24T06:26:24;5.45;;;1.90;;
69511;SDS011;56709;52.036;4.644;2023-02-24T06:28:54;9.07;;;2.40;;
69511;SDS011;56709;52.036;4.644;2023-02-24T06:31:20;5.18;;;1.88;;
69511;SDS011;56709;52.036;4.644;2023-02-24T06:33:46;6.18;;;2.35;;
69511;SDS011;56709;52.036;4.644;2023-02-24T06:36:12;7.93;;;2.50;;
69511;SDS011;56709;52.036;4.644;2023-02-24T06:38:41;11.65;;;2.50;;
69511;SDS011;56709;52.036;4.644;2023-02-24T06:41:06;8.65;;;2.42;;
69511;SDS011;56709;52.036;4.644;2023-02-24T06:43:38;9.35;;;2.60;;
69511;SDS011;56709;52.036;4.644;2023-02-24T06:46:05;5.32;;;1.85;;
69511;SDS011;56709;52.036;4.644;2023-02-24T06:48:31;15.68;;;3.05;;
69511;SDS011;56709;52.036;4.644;2023-02-24T06:51:07;11.85;;;2.20;;
69511;SDS011;56709;52.036;4.644;2023-02-24T06:53:35;8.60;;;2.20;;
69511;SDS011;56709;52.036;4.644;2023-02-24T06:56:07;9.85;;;2.17;;
69511;SDS011;56709;52.036;4.644;2023-02-24T06:58:39;12.32;;;1.80;;
69511;SDS011;56709;52.036;4.644;2023-02-24T07:01:08;8.32;;;1.83;;
69511;SDS011;56709;52.036;4.644;2023-02-24T07:03:36;5.03;;;2.53;;
69511;SDS011;56709;52.036;4.644;2023-02-24T07:06:08;7.30;;;2.20;;
69511;SDS011;56709;52.036;4.644;2023-02-24T07:08:48;9.40;;;2.05;;
69511;SDS011;56709;52.036;4.644;2023-02-24T07:11:14;16.43;;;2.37;;
69511;SDS011;56709;52.036;4.644;2023-02-24T07:13:43;7.47;;;2.13;;
69511;SDS011;56709;52.036;4.644;2023-02-24T07:16:11;10.48;;;2.17;;
69511;SDS011;56709;52.036;4.644;2023-02-24T07:18:39;7.43;;;1.75;;
69511;SDS011;56709;52.036;4.644;2023-02-24T07:21:07;5.95;;;2.40;;
69511;SDS011;56709;52.036;4.644;2023-02-24T07:23:35;7.25;;;1.95;;
69511;SDS011;56709;52.036;4.644;2023-02-24T07:26:14;6.50;;;1.83;;
69511;SDS011;56709;52.036;4.644;2023-02-24T07:28:42;10.30;;;2.53;;
69511;SDS011;56709;52.036;4.644;2023-02-24T07:31:08;6.25;;;2.17;;
69511;SDS011;56709;52.036;4.644;2023-02-24T07:33:40;13.10;;;2.85;;
69511;SDS011;56709;52.036;4.644;2023-02-24T07:36:09;7.82;;;2.42;;
69511;SDS011;56709;52.036;4.644;2023-02-24T07:38:39;13.00;;;2.08;;
69511;SDS011;56709;52.036;4.644;2023-02-24T07:41:06;17.13;;;2.55;;
69511;SDS011;56709;52.036;4.644;2023-02-24T07:43:32;13.93;;;2.42;;
69511;SDS011;56709;52.036;4.644;2023-02-24T07:46:11;7.05;;;2.55;;
69511;SDS011;56709;52.036;4.644;2023-02-24T07:48:39;12.05;;;2.95;;
69511;SDS011;56709;52.036;4.644;2023-02-24T07:51:18;8.80;;;2.25;;
69511;SDS011;56709;52.036;4.644;2023-02-24T07:53:49;9.18;;;2.47;;
69511;SDS011;56709;52.036;4.644;2023-02-24T07:56:17;8.00;;;2.17;;
69511;SDS011;56709;52.036;4.644;2023-02-24T07:58:43;6.95;;;2.60;;
69511;SDS011;56709;52.036;4.644;2023-02-24T08:01:10;6.90;;;2.05;;
69511;SDS011;56709;52.036;4.644;2023-02-24T08:03:46;4.93;;;2.33;;
69511;SDS011;56709;52.036;4.644;2023-02-24T08:06:20;9.27;;;2.53;;
69511;SDS011;56709;52.036;4.644;2023-02-24T08:08:57;9.32;;;2.58;;
69511;SDS011;56709;52.036;4.644;2023-02-24T08:11:29;6.85;;;2.08;;
69511;SDS011;56709;52.036;4.644;2023-02-24T08:14:06;11.48;;;3.05;;
69511;SDS011;56709;52.036;4.644;2023-02-24T08:16:41;8.77;;;2.67;;
69511;SDS011;56709;52.036;4.644;2023-02-24T08:19:08;10.38;;;2.97;;
69511;SDS011;56709;52.036;4.644;2023-02-24T08:21:39;11.73;;;2.53;;
69511;SDS011;56709;52.036;4.644;2023-02-24T08:26:42;9.52;;;2.97;;
69511;SDS011;56709;52.036;4.644;2023-02-24T08:29:10;13.98;;;2.33;;
69511;SDS011;56709;52.036;4.644;2023-02-24T08:31:36;13.33;;;2.50;;
69511;SDS011;56709;52.036;4.644;2023-02-24T08:34:02;14.52;;;3.08;;
69511;SDS011;56709;52.036;4.644;2023-02-24T08:36:27;8.63;;;2.47;;
69511;SDS011;56709;52.036;4.644;2023-02-24T08:38:52;10.27;;;2.40;;
69511;SDS011;56709;52.036;4.644;2023-02-24T08:41:19;10.15;;;2.78;;
69511;SDS011;56709;52.036;4.644;2023-02-24T08:43:53;13.48;;;3.33;;
69511;SDS011;56709;52.036;4.644;2023-02-24T08:46:21;10.77;;;2.90;;
69511;SDS011;56709;52.036;4.644;2023-02-24T08:48:51;10.77;;;3.50;;
69511;SDS011;56709;52.036;4.644;2023-02-24T08:51:22;11.23;;;2.78;;
69511;SDS011;56709;52.036;4.644;2023-02-24T08:53:53;10.40;;;2.92;;
69511;SDS011;56709;52.036;4.644;2023-02-24T08:56:21;12.40;;;3.25;;
69511;SDS011;56709;52.036;4.644;2023-02-24T08:58:58;10.30;;;2.90;;
69511;SDS011;56709;52.036;4.644;2023-02-24T09:01:30;9.25;;;2.72;;
69511;SDS011;56709;52.036;4.644;2023-02-24T09:03:59;15.85;;;2.97;;
69511;SDS011;56709;52.036;4.644;2023-02-24T09:06:34;9.25;;;2.63;;
69511;SDS011;56709;52.036;4.644;2023-02-24T09:09:02;10.73;;;2.45;;
69511;SDS011;56709;52.036;4.644;2023-02-24T09:11:57;17.35;;;2.60;;
69511;SDS011;56709;52.036;4.644;2023-02-24T09:14:27;9.43;;;2.72;;
69511;SDS011;56709;52.036;4.644;2023-02-24T09:16:55;9.80;;;2.88;;
69511;SDS011;56709;52.036;4.644;2023-02-24T09:19:39;11.98;;;2.40;;
69511;SDS011;56709;52.036;4.644;2023-02-24T09:22:09;6.07;;;2.00;;
69511;SDS011;56709;52.036;4.644;2023-02-24T09:24:56;14.13;;;2.65;;
69511;SDS011;56709;52.036;4.644;2023-02-24T09:27:44;17.45;;;2.78;;
69511;SDS011;56709;52.036;4.644;2023-02-24T09:30:20;14.80;;;2.92;;
69511;SDS011;56709;52.036;4.644;2023-02-24T09:33:20;11.10;;;2.05;;
69511;SDS011;56709;52.036;4.644;2023-02-24T09:36:02;15.73;;;3.47;;
69511;SDS011;56709;52.036;4.644;2023-02-24T09:38:47;10.10;;;2.75;;
69511;SDS011;56709;52.036;4.644;2023-02-24T09:41:36;18.92;;;3.67;;
69511;SDS011;56709;52.036;4.644;2023-02-24T09:44:38;9.27;;;2.67;;
69511;SDS011;56709;52.036;4.644;2023-02-24T09:47:11;13.77;;;2.85;;
69511;SDS011;56709;52.036;4.644;2023-02-24T09:49:53;18.65;;;2.80;;
69511;SDS011;56709;52.036;4.644;2023-02-24T09:52:20;11.43;;;3.13;;
69511;SDS011;56709;52.036;4.644;2023-02-24T09:55:03;11.43;;;3.05;;
69511;SDS011;56709;52.036;4.644;2023-02-24T09:57:49;18.00;;;3.50;;
69511;SDS011;56709;52.036;4.644;2023-02-24T10:00:37;15.40;;;3.20;;
69511;SDS011;56709;52.036;4.644;2023-02-24T10:06:03;18.48;;;4.05;;
69511;SDS011;56709;52.036;4.644;2023-02-24T10:08:37;13.38;;;4.05;;
69511;SDS011;56709;52.036;4.644;2023-02-24T10:11:08;15.20;;;4.78;;
69511;SDS011;56709;52.036;4.644;2023-02-24T10:16:14;15.50;;;5.43;;
69511;SDS011;56709;52.036;4.644;2023-02-24T10:18:51;14.52;;;6.15;;
69511;SDS011;56709;52.036;4.644;2023-02-24T10:24:28;17.73;;;6.43;;
69511;SDS011;56709;52.036;4.644;2023-02-24T10:35:18;18.48;;;7.65;;
69511;SDS011;56709;52.036;4.644;2023-02-24T10:37:50;15.13;;;8.30;;
69511;SDS011;56709;52.036;4.644;2023-02-24T10:40:16;23.17;;;9.68;;
69511;SDS011;56709;52.036;4.644;2023-02-24T10:43:03;14.48;;;8.05;;
69511;SDS011;56709;52.036;4.644;2023-02-24T10:45:36;14.77;;;8.20;;
69511;SDS011;56709;52.036;4.644;2023-02-24T10:48:09;16.00;;;8.88;;
69511;SDS011;56709;52.036;4.644;2023-02-24T10:50:41;18.05;;;8.73;;
69511;SDS011;56709;52.036;4.644;2023-02-24T10:55:50;17.42;;;8.45;;
69511;SDS011;56709;52.036;4.644;2023-02-24T10:58:29;15.07;;;8.13;;
69511;SDS011;56709;52.036;4.644;2023-02-24T11:01:19;17.58;;;7.82;;
69511;SDS011;56709;52.036;4.644;2023-02-24T11:04:04;17.23;;;8.57;;
69511;SDS011;56709;52.036;4.644;2023-02-24T11:07:02;16.00;;;8.02;;
69511;SDS011;56709;52.036;4.644;2023-02-24T11:09:36;15.65;;;8.48;;
69511;SDS011;56709;52.036;4.644;2023-02-24T11:12:19;15.95;;;8.88;;
69511;SDS011;56709;52.036;4.644;2023-02-24T11:15:06;18.23;;;9.00;;
69511;SDS011;56709;52.036;4.644;2023-02-24T11:18:00;14.88;;;8.60;;
69511;SDS011;56709;52.036;4.644;2023-02-24T11:20:32;16.80;;;9.10;;
69511;SDS011;56709;52.036;4.644;2023-02-24T11:23:12;17.75;;;10.35;;
69511;SDS011;56709;52.036;4.644;2023-02-24T11:25:41;20.75;;;10.13;;
69511;SDS011;56709;52.036;4.644;2023-02-24T11:41:38;23.50;;;9.00;;
69511;SDS011;56709;52.036;4.644;2023-02-24T11:47:01;19.17;;;7.55;;
69511;SDS011;56709;52.036;4.644;2023-02-24T11:52:30;16.90;;;6.22;;
69511;SDS011;56709;52.036;4.644;2023-02-24T11:54:58;17.58;;;5.60;;
69511;SDS011;56709;52.036;4.644;2023-02-24T12:00:13;17.63;;;5.95;;
69511;SDS011;56709;52.036;4.644;2023-02-24T12:05:41;14.65;;;4.80;;
69511;SDS011;56709;52.036;4.644;2023-02-24T12:10:49;21.30;;;5.43;;
69511;SDS011;56709;52.036;4.644;2023-02-24T12:13:22;22.65;;;6.38;;
69511;SDS011;56709;52.036;4.644;2023-02-24T12:18:36;21.60;;;5.95;;
69511;SDS011;56709;52.036;4.644;2023-02-24T12:21:19;16.95;;;5.07;;
69511;SDS011;56709;52.036;4.644;2023-02-24T12:23:47;20.77;;;6.63;;
69511;SDS011;56709;52.036;4.644;2023-02-24T12:26:30;20.70;;;5.15;;
69511;SDS011;56709;52.036;4.644;2023-02-24T12:31:55;24.77;;;4.20;;
69511;SDS011;56709;52.036;4.644;2023-02-24T12:39:47;20.35;;;3.72;;
69511;SDS011;56709;52.036;4.644;2023-02-24T12:45:38;11.40;;;2.88;;
69511;SDS011;56709;52.036;4.644;2023-02-24T12:54:28;14.82;;;3.95;;
69511;SDS011;56709;52.036;4.644;2023-02-24T12:57:10;17.40;;;3.40;;
69511;SDS011;56709;52.036;4.644;2023-02-24T12:59:42;19.92;;;3.35;;
69511;SDS011;56709;52.036;4.644;2023-02-24T13:05:08;19.05;;;3.45;;
69511;SDS011;56709;52.036;4.644;2023-02-24T13:07:47;15.85;;;2.78;;
69511;SDS011;56709;52.036;4.644;2023-02-24T13:12:53;17.77;;;3.67;;
69511;SDS011;56709;52.036;4.644;2023-02-24T13:15:24;17.80;;;2.88;;
69511;SDS011;56709;52.036;4.644;2023-02-24T13:17:52;17.67;;;3.75;;
69511;SDS011;56709;52.036;4.644;2023-02-24T13:20:29;14.27;;;2.47;;
69511;SDS011;56709;52.036;4.644;2023-02-24T13:22:59;17.75;;;3.45;;
69511;SDS011;56709;52.036;4.644;2023-02-24T13:25:35;20.77;;;3.00;;
69511;SDS011;56709;52.036;4.644;2023-02-24T13:28:22;13.48;;;3.05;;
69511;SDS011;56709;52.036;4.644;2023-02-24T13:31:02;27.45;;;4.82;;
69511;SDS011;56709;52.036;4.644;2023-02-24T13:34:10;20.25;;;3.70;;
69511;SDS011;56709;52.036;4.644;2023-02-24T13:36:22;21.25;;;3.67;;
69511;SDS011;56709;52.036;4.644;2023-02-24T13:46:18;19.80;;;2.90;;
69511;SDS011;56709;52.036;4.644;2023-02-24T13:54:07;18.95;;;3.10;;
69511;SDS011;56709;52.036;4.644;2023-02-24T13:56:51;15.13;;;2.92;;
69511;SDS011;56709;52.036;4.644;2023-02-24T14:02:34;20.58;;;3.78;;
69511;SDS011;56709;52.036;4.644;2023-02-24T14:05:07;21.65;;;3.03;;
69511;SDS011;56709;52.036;4.644;2023-02-24T14:07:41;21.73;;;3.50;;
69511;SDS011;56709;52.036;4.644;2023-02-24T14:10:14;19.65;;;3.28;;
69511;SDS011;56709;52.036;4.644;2023-02-24T14:12:43;21.40;;;3.03;;
69511;SDS011;56709;52.036;4.644;2023-02-24T14:15:11;15.57;;;2.80;;
69511;SDS011;56709;52.036;4.644;2023-02-24T14:17:39;17.60;;;2.80;;
69511;SDS011;56709;52.036;4.644;2023-02-24T14:22:33;12.00;;;2.17;;
69511;SDS011;56709;52.036;4.644;2023-02-24T14:25:03;11.45;;;2.35;;
69511;SDS011;56709;52.036;4.644;2023-02-24T14:27:29;12.60;;;2.28;;
69511;SDS011;56709;52.036;4.644;2023-02-24T14:29:55;21.58;;;2.28;;
69511;SDS011;56709;52.036;4.644;2023-02-24T14:32:22;13.88;;;2.08;;
69511;SDS011;56709;52.036;4.644;2023-02-24T14:34:48;11.45;;;2.20;;
69511;SDS011;56709;52.036;4.644;2023-02-24T14:37:14;14.15;;;2.05;;
69511;SDS011;56709;52.036;4.644;2023-02-24T14:40:02;11.83;;;2.07;;
69511;SDS011;56709;52.036;4.644;2023-02-24T14:42:29;10.27;;;1.45;;
69511;SDS011;56709;52.036;4.644;2023-02-24T14:44:56;7.80;;;1.48;;
69511;SDS011;56709;52.036;4.644;2023-02-24T14:47:24;11.55;;;1.52;;
69511;SDS011;56709;52.036;4.644;2023-02-24T14:49:56;14.07;;;2.20;;
69511;SDS011;56709;52.036;4.644;2023-02-24T14:55:28;11.90;;;1.80;;
69511;SDS011;56709;52.036;4.644;2023-02-24T15:00:39;7.95;;;2.25;;
69511;SDS011;56709;52.036;4.644;2023-02-24T15:05:42;7.28;;;1.30;;
69511;SDS011;56709;52.036;4.644;2023-02-24T15:08:26;5.50;;;1.30;;
69511;SDS011;56709;52.036;4.644;2023-02-24T15:10:56;4.50;;;1.23;;
69511;SDS011;56709;52.036;4.644;2023-02-24T15:13:29;4.70;;;1.00;;
69511;SDS011;56709;52.036;4.644;2023-02-24T15:16:18;9.77;;;1.80;;
69511;SDS011;56709;52.036;4.644;2023-02-24T15:18:50;5.88;;;1.27;;
69511;SDS011;56709;52.036;4.644;2023-02-24T15:21:27;7.60;;;1.02;;
69511;SDS011;56709;52.036;4.644;2023-02-24T15:24:01;7.28;;;1.35;;
69511;SDS011;56709;52.036;4.644;2023-02-24T15:26:30;4.15;;;1.10;;
69511;SDS011;56709;52.036;4.644;2023-02-24T15:28:57;9.13;;;1.25;;
69511;SDS011;56709;52.036;4.644;2023-02-24T15:31:36;10.88;;;1.55;;
69511;SDS011;56709;52.036;4.644;2023-02-24T15:34:02;5.47;;;1.10;;
69511;SDS011;56709;52.036;4.644;2023-02-24T15:36:31;7.10;;;1.17;;
69511;SDS011;56709;52.036;4.644;2023-02-24T15:39:07;6.20;;;1.30;;
69511;SDS011;56709;52.036;4.644;2023-02-24T15:41:40;17.40;;;1.90;;
69511;SDS011;56709;52.036;4.644;2023-02-24T15:44:28;9.40;;;1.75;;
69511;SDS011;56709;52.036;4.644;2023-02-24T15:46:56;8.20;;;1.23;;
69511;SDS011;56709;52.036;4.644;2023-02-24T15:49:22;7.57;;;0.90;;
69511;SDS011;56709;52.036;4.644;2023-02-24T15:51:48;5.82;;;0.90;;
69511;SDS011;56709;52.036;4.644;2023-02-24T15:54:19;7.32;;;1.25;;
69511;SDS011;56709;52.036;4.644;2023-02-24T15:56:49;8.23;;;1.98;;
69511;SDS011;56709;52.036;4.644;2023-02-24T15:59:16;7.43;;;2.55;;
69511;SDS011;56709;52.036;4.644;2023-02-24T16:01:42;11.65;;;1.52;;
69511;SDS011;56709;52.036;4.644;2023-02-24T16:04:07;7.15;;;1.48;;
69511;SDS011;56709;52.036;4.644;2023-02-24T16:06:34;9.02;;;1.40;;
69511;SDS011;56709;52.036;4.644;2023-02-24T16:09:05;13.98;;;2.05;;
69511;SDS011;56709;52.036;4.644;2023-02-24T16:11:33;15.18;;;1.80;;
69511;SDS011;56709;52.036;4.644;2023-02-24T16:14:01;9.85;;;1.30;;
69511;SDS011;56709;52.036;4.644;2023-02-24T16:16:27;5.57;;;1.20;;
69511;SDS011;56709;52.036;4.644;2023-02-24T16:18:52;13.68;;;1.80;;
69511;SDS011;56709;52.036;4.644;2023-02-24T16:21:18;12.93;;;1.98;;
69511;SDS011;56709;52.036;4.644;2023-02-24T16:23:43;10.65;;;1.77;;
69511;SDS011;56709;52.036;4.644;2023-02-24T16:26:13;11.35;;;1.60;;
69511;SDS011;56709;52.036;4.644;2023-02-24T16:28:56;13.02;;;1.80;;
69511;SDS011;56709;52.036;4.644;2023-02-24T16:31:22;8.10;;;1.52;;
69511;SDS011;56709;52.036;4.644;2023-02-24T16:33:49;11.57;;;1.80;;
69511;SDS011;56709;52.036;4.644;2023-02-24T16:36:14;11.23;;;1.58;;
69511;SDS011;56709;52.036;4.644;2023-02-24T16:38:41;10.75;;;1.80;;
69511;SDS011;56709;52.036;4.644;2023-02-24T16:41:08;20.25;;;1.85;;
69511;SDS011;56709;52.036;4.644;2023-02-24T16:43:34;11.60;;;1.48;;
69511;SDS011;56709;52.036;4.644;2023-02-24T16:46:02;17.33;;;1.95;;
69511;SDS011;56709;52.036;4.644;2023-02-24T16:48:29;8.60;;;1.77;;
69511;SDS011;56709;52.036;4.644;2023-02-24T16:50:58;14.50;;;1.92;;
69511;SDS011;56709;52.036;4.644;2023-02-24T16:53:24;10.75;;;1.55;;
69511;SDS011;56709;52.036;4.644;2023-02-24T16:55:50;14.13;;;2.78;;
69511;SDS011;56709;52.036;4.644;2023-02-24T16:58:16;17.05;;;2.80;;
69511;SDS011;56709;52.036;4.644;2023-02-24T17:00:42;15.43;;;2.30;;
69511;SDS011;56709;52.036;4.644;2023-02-24T17:03:19;14.32;;;2.25;;
69511;SDS011;56709;52.036;4.644;2023-02-24T17:05:46;9.43;;;2.20;;
69511;SDS011;56709;52.036;4.644;2023-02-24T17:08:12;10.88;;;1.58;;
69511;SDS011;56709;52.036;4.644;2023-02-24T17:10:38;10.00;;;2.08;;
69511;SDS011;56709;52.036;4.644;2023-02-24T17:13:07;14.80;;;2.85;;
69511;SDS011;56709;52.036;4.644;2023-02-24T17:15:34;20.40;;;3.78;;
69511;SDS011;56709;52.036;4.644;2023-02-24T17:18:00;15.20;;;2.30;;
69511;SDS011;56709;52.036;4.644;2023-02-24T17:20:25;20.52;;;2.80;;
69511;SDS011;56709;52.036;4.644;2023-02-24T17:22:51;16.10;;;2.25;;
69511;SDS011;56709;52.036;4.644;2023-02-24T17:25:22;15.98;;;2.53;;
69511;SDS011;56709;52.036;4.644;2023-02-24T17:27:49;12.10;;;2.50;;
69511;SDS011;56709;52.036;4.644;2023-02-24T17:30:20;14.52;;;2.97;;
69511;SDS011;56709;52.036;4.644;2023-02-24T17:32:47;21.95;;;3.50;;
69511;SDS011;56709;52.036;4.644;2023-02-24T17:35:12;15.45;;;2.60;;
69511;SDS011;56709;52.036;4.644;2023-02-24T17:37:38;15.57;;;2.33;;
69511;SDS011;56709;52.036;4.644;2023-02-24T17:40:03;9.30;;;1.58;;
69511;SDS011;56709;52.036;4.644;2023-02-24T17:42:29;20.10;;;2.38;;
69511;SDS011;56709;52.036;4.644;2023-02-24T17:44:55;16.95;;;2.67;;
69511;SDS011;56709;52.036;4.644;2023-02-24T17:47:20;18.23;;;2.53;;
69511;SDS011;56709;52.036;4.644;2023-02-24T17:49:46;14.50;;;2.78;;